createdAt,value
2023-04-24T00:02:12.384Z,38.47
2023-04-24T00:07:34.601Z,38.92
2023-04-24T00:12:56.422Z,38.43
2023-04-24T00:18:19.063Z,38.44
2023-04-24T00:23:40.922Z,38.65
2023-04-24T00:29:02.751Z,38.52
2023-04-24T00:34:24.706Z,38.67
2023-04-24T00:39:46.547Z,38.63
2023-04-24T00:45:09.121Z,38.42
2023-04-24T00:50:31.759Z,38.84
2023-04-24T00:55:53.809Z,38.64
2023-04-24T01:01:15.866Z,38.59
2023-04-24T01:06:40.181Z,38.72
2023-04-24T01:12:02.762Z,38.71
2023-04-24T01:17:24.598Z,38.74
2023-04-24T01:22:46.667Z,38.46
2023-04-24T01:28:08.709Z,38.66
2023-04-24T01:33:30.740Z,38.81
2023-04-24T01:38:52.821Z,38.65
2023-04-24T01:44:15.501Z,38.55
2023-04-24T01:49:39.920Z,38.32
2023-04-24T01:55:02.064Z,38.53
2023-04-24T02:00:24.259Z,38.29
2023-04-24T02:05:46.527Z,38.39
2023-04-24T02:11:10.739Z,38.45
2023-04-24T02:16:34.196Z,38.35
2023-04-24T02:21:56.193Z,38.61
2023-04-24T02:27:17.982Z,38.25
2023-04-24T02:32:40.389Z,38.30
2023-04-24T02:38:02.407Z,38.45
2023-04-24T02:43:24.265Z,38.14
2023-04-24T02:48:46.076Z,38.13
2023-04-24T02:54:09.606Z,38.38
2023-04-24T02:59:31.569Z,38.14
2023-04-24T03:04:53.376Z,38.36
2023-04-24T03:10:15.151Z,38.29
2023-04-24T03:15:36.935Z,38.06
2023-04-24T03:20:59.004Z,38.08
2023-04-24T03:26:21.126Z,38.36
2023-04-24T03:31:43.028Z,38.34
2023-04-24T03:37:04.953Z,38.12
2023-04-24T03:42:26.735Z,38.41
2023-04-24T03:47:48.595Z,38.18
2023-04-24T03:53:10.531Z,38.49
2023-04-24T03:58:32.442Z,38.29
2023-04-24T04:03:54.377Z,38.32
2023-04-24T04:09:16.504Z,38.34
2023-04-24T04:14:38.363Z,38.18
2023-04-24T04:20:00.156Z,38.06
2023-04-24T04:25:22.080Z,38.40
2023-04-24T04:30:43.951Z,38.00
2023-04-24T04:36:05.949Z,38.34
2023-04-24T04:41:27.793Z,38.47
2023-04-24T04:46:49.826Z,37.96
2023-04-24T04:52:11.859Z,37.94
2023-04-24T04:57:33.727Z,37.98
2023-04-24T05:03:03.095Z,38.39
2023-04-24T05:08:31.101Z,38.03
2023-04-24T05:13:52.876Z,37.76
2023-04-24T05:19:15.919Z,37.41
2023-04-24T05:24:37.987Z,37.43
2023-04-24T05:29:59.889Z,37.26
2023-04-24T05:35:21.758Z,37.20
2023-04-24T05:40:43.803Z,37.27
2023-04-24T05:46:06.033Z,36.86
2023-04-24T05:51:27.866Z,36.93
2023-04-24T05:56:51.055Z,37.20
2023-04-24T06:02:12.982Z,37.28
2023-04-24T06:07:35.269Z,37.12
2023-04-24T06:13:01.443Z,37.37
2023-04-24T06:18:23.376Z,37.30
2023-04-24T06:23:45.332Z,37.26
2023-04-24T06:29:08.652Z,37.56
2023-04-24T06:34:32.039Z,37.82
2023-04-24T06:39:53.837Z,37.63
2023-04-24T06:45:15.907Z,37.71
2023-04-24T06:50:37.737Z,37.92
2023-04-24T06:55:59.589Z,38.11
2023-04-24T07:01:21.507Z,37.78
2023-04-24T07:06:43.489Z,37.62
2023-04-24T07:12:05.379Z,37.48
2023-04-24T07:17:27.267Z,37.32
2023-04-24T07:22:50.400Z,37.24
2023-04-24T07:28:12.282Z,37.10
2023-04-24T07:33:34.090Z,37.39
2023-04-24T07:38:56.852Z,36.97
2023-04-24T07:44:18.880Z,37.39
2023-04-24T07:49:40.709Z,36.97
2023-04-24T07:55:03.511Z,37.33
2023-04-24T08:00:25.378Z,36.92
2023-04-24T08:05:47.376Z,36.90
2023-04-24T08:11:09.288Z,37.13
2023-04-24T08:16:31.607Z,37.20
2023-04-24T08:21:53.528Z,36.96
2023-04-24T08:27:15.593Z,36.65
2023-04-24T08:32:38.352Z,36.97
2023-04-24T08:38:00.143Z,36.94
2023-04-24T08:43:24.353Z,36.55
2023-04-24T08:48:46.941Z,36.82
2023-04-24T08:54:09.477Z,36.80
2023-04-24T08:59:35.080Z,36.80
2023-04-24T09:04:57.389Z,37.13
2023-04-24T09:10:19.482Z,37.22
2023-04-24T09:15:42.401Z,36.80
2023-04-24T09:21:08.382Z,37.16
2023-04-24T09:26:37.919Z,37.38
2023-04-24T09:32:00.192Z,37.18
2023-04-24T09:37:31.488Z,37.27
2023-04-24T09:42:56.721Z,37.21
2023-04-24T09:48:18.540Z,37.59
2023-04-24T09:53:43.422Z,37.52
2023-04-24T09:59:08.672Z,37.50
2023-04-24T10:04:31.048Z,37.71
2023-04-24T10:09:53.037Z,37.61
2023-04-24T10:15:15.814Z,37.41
2023-04-24T10:20:39.411Z,37.44
2023-04-24T10:26:01.831Z,37.56
2023-04-24T10:31:23.966Z,37.37
2023-04-24T10:36:54.299Z,37.19
2023-04-24T10:42:18.087Z,37.29
2023-04-24T10:47:43.514Z,37.05
2023-04-24T10:53:16.536Z,37.46
2023-04-24T10:58:39.508Z,37.24
2023-04-24T11:04:06.135Z,37.17
2023-04-24T11:09:29.971Z,36.88
2023-04-24T11:15:00.988Z,37.07
2023-04-24T11:20:28.215Z,37.02
2023-04-24T11:26:36.883Z,36.92
2023-04-24T11:32:16.243Z,36.85
2023-04-24T11:37:40.475Z,36.95
2023-04-24T11:43:02.382Z,36.69
2023-04-24T11:48:24.196Z,36.71
2023-04-24T11:53:47.740Z,37.02
2023-04-24T11:59:11.777Z,36.99
2023-04-24T12:04:41.967Z,36.92
2023-04-24T12:10:06.958Z,36.75
2023-04-24T12:15:29.903Z,36.52
2023-04-24T12:20:51.704Z,36.50
2023-04-24T12:26:18.049Z,36.67
2023-04-24T12:31:39.889Z,36.33
2023-04-24T12:37:12.353Z,36.49
2023-04-24T12:42:35.032Z,36.23
2023-04-24T12:47:56.936Z,36.05
2023-04-24T12:53:18.818Z,35.98
2023-04-24T12:58:40.655Z,36.06
2023-04-24T13:04:02.576Z,36.10
2023-04-24T13:09:25.014Z,36.00
2023-04-24T13:14:47.066Z,35.96
2023-04-24T13:20:09.217Z,35.94
2023-04-24T13:25:36.754Z,35.43
2023-04-24T13:30:58.617Z,35.58
2023-04-24T13:36:20.548Z,35.85
2023-04-24T13:41:42.477Z,35.38
2023-04-24T13:47:04.310Z,35.58
2023-04-24T13:52:26.251Z,35.49
2023-04-24T13:57:48.107Z,35.49
2023-04-24T14:03:10.205Z,35.73
2023-04-24T14:08:32.043Z,35.29
2023-04-24T14:13:55.782Z,35.03
2023-04-24T14:19:17.649Z,35.39
2023-04-24T14:24:39.474Z,35.35
2023-04-24T14:30:01.649Z,35.24
2023-04-24T14:35:23.699Z,35.39
2023-04-24T14:41:05.507Z,35.35
2023-04-24T14:46:27.332Z,35.68
2023-04-24T14:51:49.749Z,35.40
2023-04-24T14:57:12.116Z,34.86
2023-04-24T15:02:34.811Z,35.10
2023-04-24T15:07:56.943Z,34.63
2023-04-24T15:13:18.728Z,34.56
2023-04-24T15:18:40.517Z,34.32
2023-04-24T15:24:02.315Z,33.99
2023-04-24T15:29:24.151Z,33.77
2023-04-24T15:34:46.053Z,33.90
2023-04-24T15:40:11.738Z,33.98
2023-04-24T15:45:34.368Z,34.19
2023-04-24T15:50:56.523Z,33.92
2023-04-24T15:56:18.675Z,33.82
2023-04-24T16:01:41.364Z,34.08
2023-04-24T16:07:03.549Z,34.21
2023-04-24T16:12:27.994Z,33.95
2023-04-24T16:17:50.610Z,34.25
2023-04-24T16:23:12.584Z,33.71
2023-04-24T16:28:34.331Z,33.71
2023-04-24T16:33:56.076Z,33.71
2023-04-24T16:39:18.035Z,33.45
2023-04-24T16:44:40.687Z,33.32
2023-04-24T16:50:02.530Z,33.54
2023-04-24T16:55:25.424Z,33.25
2023-04-24T17:00:48.910Z,33.13
2023-04-24T17:06:10.826Z,32.92
2023-04-24T17:11:32.612Z,33.09
2023-04-24T17:16:54.603Z,33.20
2023-04-24T17:22:16.522Z,33.10
2023-04-24T17:27:38.343Z,33.19
2023-04-24T17:33:00.206Z,33.49
2023-04-24T17:38:22.170Z,33.57
2023-04-24T17:43:45.999Z,33.66
2023-04-24T17:49:08.062Z,33.83
2023-04-24T17:54:29.956Z,33.81
2023-04-24T17:59:51.888Z,33.60
2023-04-24T18:05:13.674Z,33.57
2023-04-24T18:10:38.649Z,33.20
2023-04-24T18:16:00.594Z,33.54
2023-04-24T18:21:23.900Z,33.61
2023-04-24T18:26:45.811Z,33.74
2023-04-24T18:32:10.670Z,33.26
2023-04-24T18:37:33.759Z,33.55
2023-04-24T18:42:56.965Z,33.58
2023-04-24T18:48:18.791Z,33.41
2023-04-24T18:53:40.891Z,33.00
2023-04-24T18:59:02.790Z,32.88
2023-04-24T19:04:24.685Z,32.38
2023-04-24T19:09:46.665Z,32.25
2023-04-24T19:15:11.983Z,32.17
2023-04-24T19:20:34.214Z,32.13
2023-04-24T19:25:56.153Z,32.23
2023-04-24T19:31:17.957Z,32.15
2023-04-24T19:36:39.811Z,31.75
2023-04-24T19:42:03.736Z,32.03
2023-04-24T19:47:27.340Z,32.38
2023-04-24T19:52:49.576Z,32.47
2023-04-24T19:58:11.446Z,32.84
2023-04-24T20:03:34.253Z,32.66
2023-04-24T20:08:56.701Z,32.93
2023-04-24T20:14:18.549Z,33.13
2023-04-24T20:19:41.206Z,33.47
2023-04-24T20:25:03.454Z,33.90
2023-04-24T20:30:25.779Z,34.22
2023-04-24T20:35:48.147Z,34.10
2023-04-24T20:41:10.751Z,34.82
2023-04-24T20:46:33.703Z,35.03
2023-04-24T20:51:55.599Z,34.84
2023-04-24T20:57:17.399Z,35.59
2023-04-24T21:02:39.326Z,35.89
2023-04-24T21:08:01.425Z,36.05
2023-04-24T21:13:23.408Z,36.13
2023-04-24T21:18:45.684Z,35.92
2023-04-24T21:24:07.628Z,36.16
2023-04-24T21:29:29.556Z,36.41
2023-04-24T21:34:51.385Z,36.33
2023-04-24T21:40:13.390Z,36.40
2023-04-24T21:45:35.249Z,36.93
2023-04-24T21:50:57.091Z,37.08
2023-04-24T21:56:18.969Z,36.93
2023-04-24T22:01:40.827Z,36.89
2023-04-24T22:07:02.703Z,37.05
2023-04-24T22:12:24.585Z,37.36
2023-04-24T22:17:46.417Z,36.93
2023-04-24T22:23:08.241Z,37.17
2023-04-24T22:28:30.100Z,37.20
2023-04-24T22:33:52.180Z,37.31
2023-04-24T22:39:17.689Z,37.02
2023-04-24T22:44:39.493Z,37.13
2023-04-24T22:50:01.383Z,37.21
2023-04-24T22:55:23.137Z,37.41
2023-04-24T23:00:44.975Z,37.27
2023-04-24T23:06:06.972Z,37.06
2023-04-24T23:11:28.779Z,36.96
2023-04-24T23:16:51.031Z,37.24
2023-04-24T23:22:12.973Z,37.14
2023-04-24T23:27:35.739Z,37.43
2023-04-24T23:32:57.595Z,37.22
2023-04-24T23:38:19.472Z,37.32
2023-04-24T23:43:41.354Z,37.11
2023-04-24T23:49:07.294Z,37.26
2023-04-24T23:54:29.145Z,37.25
2023-04-24T23:59:51.043Z,36.88
